Time;durP1;ratioP1;P1;durP2;ratioP2;P2;SDS_P1;SDS_P2;PMS_P1;PMS_P2;Temp;Humidity;BMP_temperature;BMP_pressure;BME280_temperature;BME280_humidity;BME280_pressure;Samples;Min_cycle;Max_cycle;Signal;HPM_P1;HPM_P2
2021/10/16 00:01:30;;;;;;;23.70;13.80;;;;;;;10.95;55.88;99863.51;27253;1218;3048592;-69
2021/10/16 00:03:59;;;;;;;29.60;13.50;;;;;;;10.93;56.10;99859.77;27238;1209;3025883;-67
2021/10/16 00:06:28;;;;;;;26.00;13.10;;;;;;;10.92;56.05;99853.34;27207;1216;3067025;-67
2021/10/16 00:08:57;;;;;;;25.80;14.30;;;;;;;10.91;56.15;99852.70;27198;1218;3027220;-67
2021/10/16 00:11:26;;;;;;;22.70;12.40;;;;;;;10.88;56.24;99846.70;27221;1216;3027495;-67
2021/10/16 00:13:58;;;;;;;25.30;13.80;;;;;;;10.86;56.43;99839.83;27232;1216;3070292;-66
2021/10/16 00:16:27;;;;;;;27.60;13.80;;;;;;;10.86;56.10;99830.90;27167;1216;3026790;-65
2021/10/16 00:18:56;;;;;;;25.00;13.10;;;;;;;10.83;56.07;99832.59;27233;1216;3050967;-68
2021/10/16 00:21:25;;;;;;;23.00;13.00;;;;;;;10.82;56.19;99834.95;27257;1216;3026069;-68
2021/10/16 00:23:57;;;;;;;23.30;12.40;;;;;;;10.79;56.19;99831.95;27254;1217;3052020;-67
2021/10/16 00:26:26;;;;;;;24.80;13.30;;;;;;;10.79;55.99;99831.23;27302;1216;3026141;-65
2021/10/16 00:28:55;;;;;;;20.20;12.50;;;;;;;10.73;56.08;99833.67;27229;1216;3048432;-68
2021/10/16 00:31:24;;;;;;;26.10;13.20;;;;;;;10.72;56.15;99831.67;27260;1216;3026063;-66
2021/10/16 00:33:53;;;;;;;24.10;14.10;;;;;;;10.71;56.12;99832.20;27242;1216;3057582;-67
2021/10/16 00:36:22;;;;;;;27.10;14.40;;;;;;;10.72;56.03;99829.58;27192;1216;3026281;-70
2021/10/16 00:38:52;;;;;;;27.00;13.80;;;;;;;10.71;56.04;99829.61;27256;1216;3028116;-68
2021/10/16 00:41:21;;;;;;;25.40;13.80;;;;;;;10.70;55.99;99826.69;27221;1216;3028754;-67
2021/10/16 00:44:29;;;;;;;23.40;13.30;;;;;;;10.67;56.20;99818.27;27249;1216;3048746;-68
2021/10/16 00:46:59;;;;;;;26.10;13.60;;;;;;;10.64;56.14;99812.09;27216;1218;3052646;-67
2021/10/16 00:49:28;;;;;;;24.50;13.50;;;;;;;10.61;56.30;99812.99;27274;1208;3026381;-65
2021/10/16 00:51:59;;;;;;;23.60;14.30;;;;;;;10.55;56.59;99812.09;27246;1216;3049188;-69
2021/10/16 00:54:29;;;;;;;25.80;13.70;;;;;;;10.50;56.85;99813.23;27235;1219;3025965;-68
2021/10/16 00:57:00;;;;;;;30.30;15.20;;;;;;;10.46;57.02;99815.56;27226;1216;3027168;-64
2021/10/16 00:59:30;;;;;;;27.10;15.00;;;;;;;10.41;57.00;99813.55;27255;1218;3026718;-69
2021/10/16 01:01:59;;;;;;;25.90;14.70;;;;;;;10.38;57.12;99808.95;27218;1216;3027382;-69
2021/10/16 01:04:28;;;;;;;28.20;15.60;;;;;;;10.36;57.15;99812.95;27249;1203;3026532;-66
2021/10/16 01:07:00;;;;;;;26.20;14.70;;;;;;;10.25;57.67;99817.17;27174;1216;3069865;-64
2021/10/16 01:09:31;;;;;;;32.50;15.90;;;;;;;10.20;57.76;99817.78;27207;1216;3026430;-70
2021/10/16 01:12:13;;;;;;;29.30;14.30;;;;;;;10.15;58.22;99814.23;27252;1216;3053436;-72
2021/10/16 01:14:55;;;;;;;27.90;15.20;;;;;;;10.12;57.98;99810.66;27231;1209;3026445;-71
2021/10/16 01:17:27;;;;;;;28.30;15.90;;;;;;;10.07;58.25;99804.27;27211;1216;3048429;-69
2021/10/16 01:20:09;;;;;;;31.90;16.50;;;;;;;10.06;58.33;99798.20;27322;1218;3025828;-67
2021/10/16 01:22:39;;;;;;;27.10;15.30;;;;;;;9.99;58.63;99791.58;27237;1216;3071015;-67
2021/10/16 01:25:11;;;;;;;29.60;16.60;;;;;;;9.96;58.92;99789.16;27263;1218;3026033;-70
2021/10/16 01:27:40;;;;;;;33.00;17.40;;;;;;;9.91;59.21;99787.62;27229;1216;3026474;-63
2021/10/16 01:30:11;;;;;;;30.90;16.80;;;;;;;9.89;59.23;99788.29;27279;1216;3026142;-66
2021/10/16 01:32:42;;;;;;;34.50;17.00;;;;;;;9.84;59.42;99783.96;27278;1216;3025895;-63
2021/10/16 01:35:11;;;;;;;34.40;16.40;;;;;;;9.86;59.41;99781.40;27197;1218;3026074;-66
2021/10/16 01:37:44;;;;;;;35.60;16.80;;;;;;;9.88;58.99;99782.86;27179;1216;3025899;-67
2021/10/16 01:40:15;;;;;;;34.60;16.60;;;;;;;9.86;59.19;99781.27;27298;1210;3026948;-65
2021/10/16 01:42:45;;;;;;;31.90;17.10;;;;;;;9.81;59.57;99783.27;27213;1216;3026163;-69
2021/10/16 01:45:19;;;;;;;31.00;17.20;;;;;;;9.80;59.52;99784.00;27238;1216;3048585;-70
2021/10/16 01:47:53;;;;;;;31.60;17.40;;;;;;;9.80;59.29;99783.35;27230;1216;3027385;-65
2021/10/16 01:50:39;;;;;;;30.30;16.00;;;;;;;9.82;59.23;99776.04;27268;1216;3052413;-72
2021/10/16 01:53:12;;;;;;;34.60;17.70;;;;;;;9.84;59.07;99770.49;27272;1219;3056529;-69
2021/10/16 01:55:45;;;;;;;33.10;17.40;;;;;;;9.86;58.96;99770.56;27225;1216;3049668;-71
2021/10/16 01:58:19;;;;;;;32.30;17.30;;;;;;;9.86;58.98;99769.56;27272;1216;3050552;-66
2021/10/16 02:01:04;;;;;;;35.50;17.90;;;;;;;9.87;59.04;99764.95;27234;1216;3050887;-65
2021/10/16 02:03:33;;;;;;;30.40;16.30;;;;;;;9.82;59.49;99768.33;27278;1216;3026045;-65
2021/10/16 02:06:07;;;;;;;35.00;18.00;;;;;;;9.77;59.44;99769.11;27229;1216;3052399;-66
2021/10/16 02:08:38;;;;;;;37.30;17.10;;;;;;;9.75;59.58;99769.60;27281;1216;3026808;-68
2021/10/16 02:11:07;;;;;;;33.90;17.10;;;;;;;9.75;59.94;99771.14;27195;1208;3025921;-66
2021/10/16 02:13:42;;;;;;;32.60;17.10;;;;;;;9.80;59.30;99771.05;27255;1218;3055726;-67
2021/10/16 02:16:11;;;;;;;29.10;16.70;;;;;;;9.86;58.99;99773.88;27228;1218;3026154;-63
2021/10/16 02:18:44;;;;;;;32.70;16.60;;;;;;;9.85;58.90;99776.08;27205;1216;3027596;-70
2021/10/16 02:21:15;;;;;;;29.40;16.70;;;;;;;9.85;59.08;99776.38;27299;1218;3027494;-71
2021/10/16 02:23:45;;;;;;;32.50;16.50;;;;;;;9.85;59.22;99774.30;27232;1216;3025984;-70
2021/10/16 02:26:14;;;;;;;32.70;17.00;;;;;;;9.86;59.16;99778.12;27228;1216;3026523;-70
2021/10/16 02:28:45;;;;;;;34.50;16.70;;;;;;;9.84;59.22;99780.50;27233;1218;3026027;-68
2021/10/16 02:31:25;;;;;;;31.60;16.10;;;;;;;9.85;58.96;99778.17;27222;1218;3049523;-67
2021/10/16 02:33:57;;;;;;;33.00;16.40;;;;;;;9.84;58.81;99781.71;27254;1216;3025949;-72
2021/10/16 02:36:29;;;;;;;38.10;17.20;;;;;;;9.84;59.23;99778.20;27240;1216;3026525;-69
2021/10/16 02:38:59;;;;;;;32.30;15.60;;;;;;;9.89;58.77;99778.49;27206;1216;3027127;-69
2021/10/16 02:41:37;;;;;;;35.40;17.00;;;;;;;9.86;59.25;99775.13;27205;1216;3048840;-66
2021/10/16 02:44:06;;;;;;;30.50;16.20;;;;;;;9.91;58.95;99769.95;27204;1216;3026078;-69
2021/10/16 02:46:50;;;;;;;32.20;16.30;;;;;;;9.91;59.12;99765.08;27221;1216;3068296;-73
2021/10/16 02:49:19;;;;;;;33.80;16.90;;;;;;;9.85;59.81;99762.42;27247;1216;3026429;-66
2021/10/16 02:51:48;;;;;;;31.50;16.10;;;;;;;9.81;59.94;99757.05;27248;1216;3052774;-69
2021/10/16 02:54:17;;;;;;;36.50;17.10;;;;;;;9.81;60.00;99761.21;27179;1216;3025780;-66
2021/10/16 02:56:48;;;;;;;36.10;18.50;;;;;;;9.80;60.19;99767.08;27316;1216;3052365;-68
2021/10/16 02:59:17;;;;;;;30.90;17.60;;;;;;;9.79;60.26;99768.16;27224;1216;3026423;-65
2021/10/16 03:01:57;;;;;;;33.40;16.80;;;;;;;9.79;60.00;99774.99;27195;1216;3068152;-65
2021/10/16 03:04:31;;;;;;;33.50;16.90;;;;;;;9.79;59.81;99773.92;27238;1218;3049215;-68
2021/10/16 03:07:01;;;;;;;30.90;16.20;;;;;;;9.80;59.38;99764.09;27258;1216;3026719;-69
2021/10/16 03:09:31;;;;;;;34.20;15.80;;;;;;;9.79;59.50;99756.77;27233;1218;3068616;-66
2021/10/16 03:12:01;;;;;;;27.80;14.80;;;;;;;9.80;59.34;99750.95;27218;1218;3026508;-69
2021/10/16 03:14:32;;;;;;;33.90;15.90;;;;;;;9.79;59.58;99754.55;27231;1216;3026043;-65
2021/10/16 03:17:02;;;;;;;32.70;16.40;;;;;;;9.77;59.45;99756.92;27236;1216;3026578;-67
2021/10/16 03:19:32;;;;;;;35.20;16.90;;;;;;;9.75;59.91;99754.20;27262;1216;3025847;-64
2021/10/16 03:22:07;;;;;;;32.50;16.40;;;;;;;9.72;60.21;99754.68;27256;1216;3049842;-65
2021/10/16 03:24:38;;;;;;;34.30;16.30;;;;;;;9.77;59.81;99754.47;27283;1216;3026459;-65
2021/10/16 03:27:08;;;;;;;31.20;16.60;;;;;;;9.77;60.06;99749.69;27252;1218;3026280;-66
2021/10/16 03:29:36;;;;;;;31.20;17.70;;;;;;;9.78;59.92;99749.82;27232;1215;3028431;-70
2021/10/16 03:32:06;;;;;;;35.60;15.70;;;;;;;9.79;59.64;99742.27;27215;1216;3054079;-65
2021/10/16 03:34:35;;;;;;;27.40;13.80;;;;;;;9.85;58.88;99736.54;27240;1216;3026289;-71
2021/10/16 03:37:04;;;;;;;29.80;15.70;;;;;;;9.88;58.24;99736.50;27247;1210;3025874;-68
2021/10/16 03:39:34;;;;;;;25.40;13.70;;;;;;;9.92;58.12;99739.68;27230;1216;3052459;-67
2021/10/16 03:42:04;;;;;;;35.90;14.30;;;;;;;9.94;58.04;99744.29;27230;1218;3028283;-65
2021/10/16 03:44:33;;;;;;;31.40;15.30;;;;;;;9.94;58.24;99751.12;27181;1218;3051137;-68
2021/10/16 03:47:03;;;;;;;28.60;14.00;;;;;;;9.95;57.93;99743.37;27267;1216;3027105;-68
2021/10/16 03:49:32;;;;;;;28.40;14.50;;;;;;;9.94;57.46;99739.35;27224;1216;3026045;-68
2021/10/16 03:52:01;;;;;;;29.20;13.50;;;;;;;9.96;57.32;99739.07;27198;1216;3049218;-67
2021/10/16 03:54:31;;;;;;;29.30;14.10;;;;;;;9.96;57.55;99738.91;27218;1216;3025974;-66
2021/10/16 03:57:00;;;;;;;25.40;14.10;;;;;;;9.96;57.32;99736.27;27270;1218;3026858;-66
2021/10/16 03:59:29;;;;;;;30.90;13.90;;;;;;;9.98;57.45;99732.51;27235;1216;3048553;-65
2021/10/16 04:01:58;;;;;;;29.90;15.10;;;;;;;9.96;57.68;99738.92;27201;1209;3026422;-67
2021/10/16 04:04:27;;;;;;;28.10;13.60;;;;;;;9.96;57.57;99740.86;27206;1218;3059558;-66
2021/10/16 04:06:56;;;;;;;30.10;14.70;;;;;;;9.92;57.53;99736.48;27230;1216;3026554;-67
2021/10/16 04:09:25;;;;;;;23.60;13.70;;;;;;;9.89;57.58;99730.00;27218;1216;3051375;-69
2021/10/16 04:11:55;;;;;;;27.20;14.00;;;;;;;9.85;57.79;99733.55;27285;1217;3025889;-66
2021/10/16 04:14:25;;;;;;;28.00;13.80;;;;;;;9.82;57.87;99739.98;27247;1216;3054044;-62
2021/10/16 04:16:54;;;;;;;26.20;14.40;;;;;;;9.83;57.83;99745.55;27234;1216;3026545;-67
2021/10/16 04:19:23;;;;;;;29.80;13.70;;;;;;;9.85;57.65;99750.55;27242;1218;3047069;-68
2021/10/16 04:21:52;;;;;;;28.10;14.40;;;;;;;9.82;57.89;99746.48;27205;1216;3028356;-66
2021/10/16 04:24:25;;;;;;;26.20;13.60;;;;;;;9.79;58.05;99745.02;27216;1216;3070604;-69
2021/10/16 04:26:54;;;;;;;30.40;14.30;;;;;;;9.77;58.19;99742.02;27231;1216;3026052;-68
2021/10/16 04:29:26;;;;;;;28.20;14.80;;;;;;;9.75;58.22;99742.29;27248;1216;3050729;-67
2021/10/16 04:32:01;;;;;;;24.90;14.00;;;;;;;9.74;58.22;99737.46;27187;1216;3067297;-71
2021/10/16 04:34:30;;;;;;;28.10;14.10;;;;;;;9.68;58.33;99732.54;27241;1216;3026395;-69
2021/10/16 04:37:01;;;;;;;35.40;14.10;;;;;;;9.65;58.78;99733.71;27271;1216;3050686;-68
2021/10/16 04:39:30;;;;;;;22.40;13.80;;;;;;;9.68;58.57;99736.73;27216;1216;3028902;-70
2021/10/16 04:41:59;;;;;;;27.70;13.80;;;;;;;9.65;58.43;99730.57;27212;1219;3052331;-70
2021/10/16 04:44:28;;;;;;;27.40;14.40;;;;;;;9.64;58.56;99728.36;27200;1216;3025962;-66
2021/10/16 04:46:57;;;;;;;29.50;14.00;;;;;;;9.64;58.47;99716.44;27228;1216;3048943;-71
2021/10/16 04:49:27;;;;;;;27.50;13.30;;;;;;;9.66;58.20;99715.15;27209;1216;3025838;-65
2021/10/16 04:51:56;;;;;;;31.20;13.40;;;;;;;9.67;58.23;99720.13;27240;1216;3056566;-68
2021/10/16 04:54:26;;;;;;;27.00;14.00;;;;;;;9.68;57.99;99718.52;27212;1216;3025745;-64
2021/10/16 04:56:55;;;;;;;28.00;12.80;;;;;;;9.69;58.01;99718.98;27233;1209;3026241;-67
2021/10/16 04:59:24;;;;;;;28.00;13.50;;;;;;;9.76;57.83;99716.33;27216;1216;3055651;-66
2021/10/16 05:01:56;;;;;;;27.30;13.70;;;;;;;9.76;57.63;99714.61;27248;1216;3026247;-64
2021/10/16 05:04:26;;;;;;;26.50;12.90;;;;;;;9.77;57.71;99709.67;27245;1216;3025979;-66
2021/10/16 05:06:58;;;;;;;23.80;13.40;;;;;;;9.79;57.35;99703.75;27233;1216;3026936;-69
2021/10/16 05:09:27;;;;;;;31.00;13.90;;;;;;;9.84;57.20;99708.77;27212;1216;3026618;-66
2021/10/16 05:11:56;;;;;;;27.50;12.40;;;;;;;9.85;57.17;99711.14;27281;1218;3054567;-68
2021/10/16 05:14:45;;;;;;;27.50;13.50;;;;;;;9.89;57.21;99706.35;27192;1216;3053387;-65
2021/10/16 05:17:14;;;;;;;25.10;13.20;;;;;;;9.88;57.42;99707.84;27284;1218;3026890;-69
2021/10/16 05:19:44;;;;;;;24.50;13.20;;;;;;;9.95;57.21;99701.90;27198;1218;3029010;-68
2021/10/16 05:22:14;;;;;;;25.70;13.50;;;;;;;9.96;57.06;99701.45;27245;1216;3027073;-66
2021/10/16 05:24:43;;;;;;;23.00;12.80;;;;;;;9.97;57.20;99698.08;27179;1216;3026518;-67
2021/10/16 05:27:12;;;;;;;28.70;14.20;;;;;;;10.00;57.16;99692.34;27205;1218;3027028;-70
2021/10/16 05:29:42;;;;;;;28.70;13.30;;;;;;;10.00;57.04;99685.51;27232;1216;3025788;-66
2021/10/16 05:32:11;;;;;;;24.60;13.90;;;;;;;10.00;57.16;99684.44;27206;1216;3051662;-67
2021/10/16 05:34:40;;;;;;;29.50;14.40;;;;;;;10.01;56.97;99687.87;27272;1219;3025972;-68
2021/10/16 05:37:11;;;;;;;26.30;14.60;;;;;;;10.04;56.96;99684.20;27191;1216;3051734;-64
2021/10/16 05:39:41;;;;;;;31.80;13.90;;;;;;;10.03;57.08;99681.99;27231;1216;3026039;-69
2021/10/16 05:42:11;;;;;;;28.10;13.60;;;;;;;10.02;57.21;99683.65;27234;1218;3028228;-63
2021/10/16 05:44:40;;;;;;;30.60;13.20;;;;;;;10.08;56.91;99690.14;27203;1216;3026582;-66
2021/10/16 05:47:09;;;;;;;27.30;14.70;;;;;;;10.08;57.30;99694.48;27213;1216;3054280;-67
2021/10/16 05:49:38;;;;;;;25.70;13.60;;;;;;;10.11;57.40;99693.69;27223;1215;3027471;-68
2021/10/16 05:52:07;;;;;;;36.20;14.70;;;;;;;10.14;57.34;99692.44;27226;1216;3051530;-72
2021/10/16 05:54:36;;;;;;;31.80;14.80;;;;;;;10.16;57.26;99694.79;27280;1216;3026875;-62
2021/10/16 05:57:06;;;;;;;25.30;13.60;;;;;;;10.20;57.45;99685.64;27241;1216;3051052;-67
2021/10/16 05:59:35;;;;;;;26.00;13.90;;;;;;;10.27;56.92;99681.74;27220;1216;3026076;-67
2021/10/16 06:02:03;;;;;;;32.00;14.30;;;;;;;10.31;56.86;99678.75;27211;1216;3069635;-63
2021/10/16 06:04:34;;;;;;;27.90;14.20;;;;;;;10.29;57.00;99683.69;27225;1216;3026211;-68
2021/10/16 06:07:03;;;;;;;29.90;14.10;;;;;;;10.34;57.18;99683.85;27204;1216;3026011;-66
2021/10/16 06:09:33;;;;;;;30.20;14.10;;;;;;;10.35;57.06;99682.72;27215;1218;3026646;-65
2021/10/16 06:12:03;;;;;;;23.50;12.90;;;;;;;10.48;56.62;99682.52;27208;1216;3026551;-68
2021/10/16 06:14:34;;;;;;;29.80;13.60;;;;;;;10.53;56.45;99686.43;27241;1216;3026577;-65
2021/10/16 06:17:13;;;;;;;29.60;13.80;;;;;;;10.60;56.30;99684.63;27296;1216;3054945;-70
2021/10/16 06:19:44;;;;;;;26.70;13.30;;;;;;;10.65;56.24;99683.64;27259;1216;3026494;-68
2021/10/16 06:22:13;;;;;;;23.30;12.70;;;;;;;10.76;55.85;99685.67;27252;1216;3049612;-69
2021/10/16 06:24:44;;;;;;;31.60;13.10;;;;;;;10.85;55.82;99688.45;27230;1216;3026005;-65
2021/10/16 06:27:13;;;;;;;28.10;12.60;;;;;;;10.92;55.38;99690.15;27248;1216;3028028;-70
2021/10/16 06:29:42;;;;;;;26.40;13.20;;;;;;;11.02;55.50;99686.79;27211;1216;3048298;-68
2021/10/16 06:32:11;;;;;;;24.90;13.20;;;;;;;11.12;54.85;99686.02;27234;1216;3029153;-66
2021/10/16 06:34:41;;;;;;;22.50;12.10;;;;;;;11.22;54.44;99684.33;27222;1209;3025720;-63
2021/10/16 06:37:10;;;;;;;25.70;12.20;;;;;;;11.32;54.50;99680.62;27239;1216;3048754;-68
2021/10/16 06:39:40;;;;;;;23.20;11.80;;;;;;;11.40;53.75;99683.61;27229;1216;3026023;-66
2021/10/16 06:42:10;;;;;;;25.90;12.00;;;;;;;11.43;53.87;99681.86;27242;1208;3025993;-66
2021/10/16 06:44:57;;;;;;;28.30;11.80;;;;;;;11.51;53.38;99679.66;27221;1218;3068299;-67
2021/10/16 06:47:46;;;;;;;24.60;11.40;;;;;;;11.57;52.88;99671.70;27190;1216;3050808;-70
2021/10/16 06:50:27;;;;;;;30.50;12.20;;;;;;;11.59;52.94;99665.30;27185;1216;3054458;-64
2021/10/16 06:52:56;;;;;;;25.80;12.30;;;;;;;11.72;52.82;99659.05;27222;1216;3026021;-65
2021/10/16 06:55:25;;;;;;;29.20;11.40;;;;;;;11.81;52.62;99657.27;27205;1216;3026060;-68
2021/10/16 06:57:56;;;;;;;21.10;10.80;;;;;;;11.86;52.59;99653.82;27219;1216;3054792;-66
2021/10/16 07:00:25;;;;;;;25.40;12.00;;;;;;;11.92;52.40;99656.22;27210;1216;3026988;-68
2021/10/16 07:02:55;;;;;;;30.60;11.80;;;;;;;12.00;52.34;99655.04;27212;1219;3048281;-66
2021/10/16 07:05:24;;;;;;;22.90;11.20;;;;;;;12.06;52.16;99656.06;27278;1216;3027237;-69
2021/10/16 07:07:53;;;;;;;24.50;11.00;;;;;;;12.08;52.26;99650.48;27232;1216;3068018;-68
2021/10/16 07:10:23;;;;;;;29.40;11.60;;;;;;;12.22;52.04;99648.58;27287;1216;3026873;-67
2021/10/16 07:12:53;;;;;;;22.00;11.10;;;;;;;12.35;51.52;99644.72;27199;1216;3025705;-65
2021/10/16 07:18:02;;;;;;;26.10;11.30;;;;;;;12.48;51.28;99638.45;34362;1218;3029260;-65
2021/10/16 07:20:31;;;;;;;25.70;14.20;;;;;;;12.76;50.99;99635.68;27188;1218;3026311;-66
2021/10/16 07:23:00;;;;;;;22.00;11.90;;;;;;;13.04;50.08;99639.10;27227;1218;3025911;-66
2021/10/16 07:25:29;;;;;;;20.10;11.30;;;;;;;12.96;50.32;99637.71;27222;1218;3047767;-70
2021/10/16 07:27:58;;;;;;;28.60;11.50;;;;;;;12.95;50.54;99637.50;27216;1218;3026168;-69
2021/10/16 07:30:27;;;;;;;22.40;11.50;;;;;;;12.96;50.41;99638.94;27256;1218;3067367;-72
2021/10/16 07:32:56;;;;;;;20.50;10.70;;;;;;;12.96;50.33;99635.24;27204;1218;3026348;-71
2021/10/16 07:35:25;;;;;;;23.80;11.30;;;;;;;13.05;50.14;99631.84;27225;1218;3050274;-69
2021/10/16 07:37:54;;;;;;;25.60;10.70;;;;;;;13.10;50.09;99630.30;27204;1218;3028862;-69
2021/10/16 07:40:23;;;;;;;28.20;12.50;;;;;;;13.13;50.26;99630.80;27194;1218;3052004;-61
2021/10/16 07:42:51;;;;;;;24.80;11.50;;;;;;;13.16;50.66;99630.55;27230;1212;3026711;-68
2021/10/16 07:45:22;;;;;;;30.20;11.30;;;;;;;13.22;50.24;99631.04;27234;1217;3048935;-70
2021/10/16 07:47:55;;;;;;;24.30;11.00;;;;;;;13.24;50.41;99627.95;27269;1217;3054494;-69
2021/10/16 07:50:24;;;;;;;26.70;12.30;;;;;;;13.27;50.37;99629.31;27260;1217;3026255;-64
2021/10/16 07:52:53;;;;;;;23.50;10.80;;;;;;;13.40;50.22;99629.45;27206;1217;3050113;-70
2021/10/16 07:55:23;;;;;;;27.40;11.30;;;;;;;13.47;50.22;99628.27;27271;1218;3026255;-68
2021/10/16 07:57:51;;;;;;;32.90;12.20;;;;;;;13.50;49.50;99629.82;27231;1216;3057417;-65
2021/10/16 08:00:21;;;;;;;20.60;10.60;;;;;;;13.51;49.82;99624.83;27203;1216;3026110;-71
2021/10/16 08:02:50;;;;;;;23.30;11.70;;;;;;;13.62;49.60;99617.58;27202;1216;3028721;-66
2021/10/16 08:05:19;;;;;;;28.80;12.30;;;;;;;13.72;49.56;99611.74;27222;1216;3055641;-67
2021/10/16 08:07:51;;;;;;;25.90;12.20;;;;;;;13.97;48.92;99611.52;27204;1216;3026361;-63
2021/10/16 08:10:21;;;;;;;28.20;11.90;;;;;;;14.18;48.74;99609.34;27270;1216;3026456;-63
2021/10/16 08:12:50;;;;;;;30.70;12.00;;;;;;;14.30;48.56;99612.35;27253;1216;3028773;-64
2021/10/16 08:15:19;;;;;;;27.20;11.60;;;;;;;14.29;48.45;99612.17;27186;1216;3026036;-65
2021/10/16 08:18:01;;;;;;;25.80;12.10;;;;;;;14.41;48.34;99613.98;27226;1216;3055087;-68
2021/10/16 08:20:30;;;;;;;26.00;11.50;;;;;;;14.51;48.52;99616.77;27273;1218;3025791;-66
2021/10/16 08:23:04;;;;;;;24.60;11.70;;;;;;;14.60;48.49;99612.24;27202;1216;3026262;-65
2021/10/16 08:25:33;;;;;;;23.90;10.40;;;;;;;14.72;48.05;99614.00;27220;1216;3048546;-68
2021/10/16 08:28:09;;;;;;;25.10;11.60;;;;;;;14.80;47.47;99606.18;27244;1216;3026218;-64
2021/10/16 08:30:40;;;;;;;25.70;10.90;;;;;;;14.85;47.31;99605.41;27218;1216;3068156;-64
2021/10/16 08:33:09;;;;;;;26.60;10.50;;;;;;;14.99;47.16;99607.57;27216;1219;3025831;-67
2021/10/16 08:35:39;;;;;;;27.60;11.90;;;;;;;15.12;46.86;99610.42;27208;1217;3026105;-71
2021/10/16 08:38:08;;;;;;;27.90;11.60;;;;;;;15.11;46.86;99605.25;27213;1218;3028053;-67
2021/10/16 08:40:37;;;;;;;29.50;12.30;;;;;;;15.19;46.82;99603.03;27207;1218;3050854;-66
2021/10/16 08:43:06;;;;;;;24.20;10.70;;;;;;;15.28;46.47;99600.77;27248;1218;3027478;-70
2021/10/16 08:45:39;;;;;;;25.80;10.80;;;;;;;15.35;46.56;99593.96;27173;1218;3070486;-62
2021/10/16 08:48:08;;;;;;;23.80;10.80;;;;;;;15.39;46.49;99595.42;27203;1218;3025952;-66
2021/10/16 08:50:37;;;;;;;32.00;12.20;;;;;;;15.47;46.50;99594.10;27246;1217;3049757;-63
2021/10/16 08:53:06;;;;;;;25.20;12.40;;;;;;;15.62;46.39;99592.60;27215;1217;3028601;-66
2021/10/16 08:55:35;;;;;;;26.60;11.80;;;;;;;15.77;46.12;99593.58;27220;1218;3052140;-70
2021/10/16 08:58:04;;;;;;;26.20;11.20;;;;;;;15.98;45.59;99597.70;27219;1218;3028361;-69
2021/10/16 09:00:49;;;;;;;28.40;12.60;;;;;;;16.15;45.21;99597.21;27239;1217;3049983;-70
2021/10/16 09:03:32;;;;;;;27.20;11.80;;;;;;;16.17;45.32;99595.27;27215;1218;3052720;-69
2021/10/16 09:06:19;;;;;;;26.50;11.50;;;;;;;16.15;45.43;99589.98;27294;1217;3052820;-67
2021/10/16 09:08:53;;;;;;;31.70;10.90;;;;;;;16.13;45.74;99586.97;27260;1218;3071779;-65
2021/10/16 09:11:36;;;;;;;23.70;11.20;;;;;;;16.24;45.32;99580.55;27218;1216;3050116;-69
2021/10/16 09:14:18;;;;;;;21.50;10.60;;;;;;;16.40;45.20;99579.27;27287;1218;3054946;-66
2021/10/16 09:16:48;;;;;;;28.40;12.80;;;;;;;16.43;44.88;99582.56;27289;1217;3025832;-62
2021/10/16 09:19:21;;;;;;;25.00;11.40;;;;;;;16.33;45.06;99578.75;27243;1217;3026400;-63
2021/10/16 09:22:11;;;;;;;32.70;12.40;;;;;;;16.31;45.23;99574.66;27203;1217;3026971;-66
2021/10/16 09:24:41;;;;;;;29.00;12.40;;;;;;;16.22;45.43;99576.09;27269;1217;3052403;-66
2021/10/16 09:27:24;;;;;;;29.00;12.60;;;;;;;16.22;45.68;99571.68;27225;1217;3028096;-64
2021/10/16 09:30:03;;;;;;;25.70;11.60;;;;;;;16.27;45.41;99563.70;27206;1218;3071305;-66
2021/10/16 09:32:33;;;;;;;31.50;12.90;;;;;;;16.13;45.74;99563.23;27214;1218;3051349;-66
2021/10/16 09:35:04;;;;;;;28.80;12.40;;;;;;;15.87;46.32;99559.15;27281;1218;3026272;-66
2021/10/16 09:37:33;;;;;;;26.90;12.30;;;;;;;16.02;46.15;99556.08;27200;1218;3071137;-67
2021/10/16 09:40:03;;;;;;;30.70;13.00;;;;;;;15.98;46.12;99552.98;27232;1218;3025830;-65
2021/10/16 09:42:43;;;;;;;28.50;13.10;;;;;;;15.96;46.14;99549.13;27254;1217;3026421;-69
2021/10/16 09:45:14;;;;;;;30.20;13.20;;;;;;;15.96;46.22;99546.64;27232;1218;3051314;-70
2021/10/16 09:47:56;;;;;;;29.10;13.00;;;;;;;15.81;46.56;99540.23;27180;1217;3058448;-68
2021/10/16 09:50:26;;;;;;;30.00;13.00;;;;;;;15.72;46.67;99537.75;27215;1218;3051454;-69
2021/10/16 09:52:57;;;;;;;30.90;13.30;;;;;;;15.61;47.17;99538.79;27196;1218;3026264;-68
2021/10/16 09:55:26;;;;;;;34.40;13.80;;;;;;;15.61;47.19;99535.45;27232;1218;3026410;-68
2021/10/16 09:57:55;;;;;;;34.60;13.60;;;;;;;15.54;47.42;99532.99;27220;1218;3049096;-65
2021/10/16 10:00:24;;;;;;;29.50;13.80;;;;;;;15.48;47.65;99532.27;27225;1218;3026091;-70
2021/10/16 10:02:56;;;;;;;29.70;13.20;;;;;;;15.50;47.63;99526.44;27230;1218;3057454;-65
2021/10/16 10:05:25;;;;;;;30.30;13.30;;;;;;;15.54;47.67;99523.48;27214;1217;3027841;-67
2021/10/16 10:07:55;;;;;;;33.90;13.70;;;;;;;15.55;47.52;99521.11;27250;1218;3026170;-68
2021/10/16 10:10:23;;;;;;;33.70;12.80;;;;;;;15.54;47.72;99519.29;27282;1218;3026750;-63
2021/10/16 10:12:53;;;;;;;39.20;13.90;;;;;;;15.61;47.61;99514.27;27207;1218;3051795;-67
2021/10/16 10:15:22;;;;;;;33.50;13.30;;;;;;;15.65;47.85;99514.35;27244;1217;3026068;-71
2021/10/16 10:20:58;;;;;;;37.10;15.90;;;;;;;15.88;47.28;99509.66;27240;1217;3048966;-68
2021/10/16 10:23:28;;;;;;;37.90;16.70;;;;;;;15.90;47.30;99504.73;27237;1218;3025910;-64
2021/10/16 10:26:36;;;;;;;38.40;16.70;;;;;;;15.89;47.47;99506.92;27248;1217;3058432;-67
2021/10/16 10:29:09;;;;;;;39.30;17.20;;;;;;;15.82;47.61;99502.35;27191;1221;3049439;-67
2021/10/16 10:31:44;;;;;;;38.70;17.00;;;;;;;15.85;47.48;99496.52;27200;1220;3025935;-69
2021/10/16 10:34:14;;;;;;;33.90;16.80;;;;;;;15.80;47.81;99499.31;27191;1220;3049370;-66
2021/10/16 10:36:51;;;;;;;39.40;16.10;;;;;;;15.77;47.75;99499.20;27113;1221;3028200;-69
2021/10/16 10:39:34;;;;;;;33.60;15.50;;;;;;;15.75;47.86;99497.08;27194;1221;3050725;-67
2021/10/16 10:42:13;;;;;;;32.60;13.40;;;;;;;15.79;47.97;99497.83;27196;1221;3054495;-67
2021/10/16 10:44:44;;;;;;;35.10;15.50;;;;;;;15.85;47.76;99490.28;27235;1220;3052473;-70
2021/10/16 10:47:33;;;;;;;37.20;14.40;;;;;;;15.86;47.86;99486.65;27216;1221;3026608;-70
2021/10/16 10:50:06;;;;;;;30.90;14.40;;;;;;;16.01;47.60;99482.48;27186;1221;3051636;-70
2021/10/16 10:53:22;;;;;;;40.00;15.30;;;;;;;16.16;47.24;99474.28;27161;1220;3055391;-67
2021/10/16 10:56:02;;;;;;;33.10;14.20;;;;;;;16.30;46.97;99469.96;27089;1223;3050308;-67
2021/10/16 10:58:49;;;;;;;37.90;15.70;;;;;;;16.48;46.68;99469.38;27052;1223;3071352;-65
2021/10/16 11:01:51;;;;;;;41.90;17.50;;;;;;;16.53;46.57;99473.98;27068;1223;3051732;-71
2021/10/16 11:04:33;;;;;;;35.60;15.80;;;;;;;16.58;46.46;99476.45;27086;1223;3052031;-71
2021/10/16 11:07:04;;;;;;;38.90;16.40;;;;;;;16.63;46.35;99477.95;27143;1221;3051869;-67
2021/10/16 11:09:33;;;;;;;39.30;16.90;;;;;;;16.56;46.31;99472.73;27157;1220;3028847;-64
2021/10/16 11:12:03;;;;;;;34.50;15.70;;;;;;;16.54;46.49;99467.04;27099;1220;3026352;-71
2021/10/16 11:14:33;;;;;;;29.60;14.70;;;;;;;16.42;46.60;99466.81;27182;1221;3050618;-66
2021/10/16 11:17:13;;;;;;;33.60;15.10;;;;;;;16.44;46.73;99460.30;27177;1221;3026147;-69
2021/10/16 11:19:56;;;;;;;33.00;14.70;;;;;;;16.46;46.87;99463.14;27190;1220;3051781;-67
2021/10/16 11:22:44;;;;;;;39.20;15.40;;;;;;;16.57;46.64;99463.62;27155;1221;3055173;-67
2021/10/16 11:25:20;;;;;;;34.80;14.30;;;;;;;16.59;46.59;99462.88;27155;1221;3050939;-71
2021/10/16 11:28:06;;;;;;;34.10;14.60;;;;;;;16.66;46.44;99465.02;27167;1220;3070441;-66
2021/10/16 11:30:43;;;;;;;31.50;13.60;;;;;;;16.49;46.62;99461.30;27231;1219;3049680;-65
2021/10/16 11:33:19;;;;;;;30.30;13.50;;;;;;;16.60;46.52;99454.20;27222;1217;3051785;-65